Wright Patterson Air Force Base
KFFO : now visible

Airfield :











YOU CAN JOIN US ON...

 
LOGIN :

Register | Disclaimer

   EN    FR    IT 

 









Legend :    VFR   Marginal VFR   IFR   Intensive IFR   Very Intensive IFR
Visi :
Ceiling :
>= 8 km
>= 3000ft
5 to 8 km
1000 to 3000 ft
1500m to 5 km
500 to 1000 ft
800 to 1500m
200 to 500 ft
< 800m
< 200 ft
Symbols :   Thunderstorms  Fog  Heavy snow  Heavy precipitations  Wind > 20 kt







- Airport Elevation : 823 ft


KFFO - Wright Patterson Air Force Base

CURRENT METAR :
  • 260756Z AUTO 00000KT 10SM CLR 19/19 A3002 RMK AO2 SLP162 T01940189

EXPIRED METARs :
  • 260656Z AUTO 00000KT 10SM CLR 19/19 A3003 RMK AO2 SLP166 T01930188
  • 260556Z AUTO 00000KT 10SM CLR 19/19 A3003 RMK AO2 SLP166 T01920190 10232 20189 56002

TAF TAF KFFO
Valid from the 26 at 03:00 until the 27 at 09:00 UTC


260300Z 2603/2709 24009KT 9999 SCT100 QNH2998INS
BECMG 2611/2612 24012KT 8000 -SHRA SCT030 OVC040 QNH3002INS
BECMG 2614/2615 10012KT 9999 NSW SCT030 BKN050 QNH2999INS
TEMPO 2619/2623 26025G35KT 4800 -TSRA BKN015CB OVC040
BECMG 2622/2623 03012KT 9999 VCSH BKN020 OVC040 QNH2999INS
BECMG 2704/2705 33009KT 9999 NSW SCT020 BKN050 QNH3000INS TX28/2621Z TN17/2703Z
KZID FIR / North America



MET'MAP, your aeronautical weather chart ! - Copyright ORBIFLY December 2007 - Disclaimer

ORBIFLY MET'MAP TEAM :

Programming & Development : Alexandra Zaïnal
Concept & Development : Baudouin d'Aumeries
Co-Development & Prog : Marc-Olivier Méhu
Technical & hardware support : Manuel Goepfert

Contact : metmap@orbifly.com




SOURCES & CREDITS :

   NOAA       Earth
Advisory